Time;durP1;ratioP1;P1;durP2;ratioP2;P2;SDS_P1;SDS_P2;PMS_P1;PMS_P2;Temp;Humidity;BMP_temperature;BMP_pressure;BME280_temperature;BME280_humidity;BME280_pressure;Samples;Min_cycle;Max_cycle;Signal;HPM_P1;HPM_P2
2023/08/18 00:00:25;;;;;;;16.02;15.43;;;23.00;99.90;;;;;;5049761;28;20204;-66
2023/08/18 00:02:52;;;;;;;14.93;14.38;;;22.90;99.90;;;;;;5052785;28;20225;-65
2023/08/18 00:05:19;;;;;;;17.90;17.25;;;22.90;99.90;;;;;;5053868;28;20292;-67
2023/08/18 00:07:46;;;;;;;17.42;16.83;;;22.90;99.90;;;;;;5053421;28;20254;-66
2023/08/18 00:10:14;;;;;;;14.68;14.18;;;22.80;99.90;;;;;;5054692;28;20210;-66
2023/08/18 00:12:41;;;;;;;17.98;17.33;;;22.80;99.90;;;;;;5053025;28;20204;-66
2023/08/18 00:15:08;;;;;;;14.63;14.13;;;22.80;99.90;;;;;;5053090;28;20230;-66
2023/08/18 00:17:35;;;;;;;13.80;13.30;;;22.70;99.90;;;;;;5053192;28;20203;-66
2023/08/18 00:20:02;;;;;;;15.15;14.60;;;22.70;99.90;;;;;;5052258;28;20212;-68
2023/08/18 00:22:29;;;;;;;16.60;16.00;;;22.70;99.90;;;;;;5052581;28;20208;-67
2023/08/18 00:24:57;;;;;;;14.20;13.70;;;22.70;99.90;;;;;;5052647;28;20208;-65
2023/08/18 00:27:25;;;;;;;14.50;13.98;;;22.60;99.90;;;;;;5052787;28;20559;-66
2023/08/18 00:29:52;;;;;;;15.63;15.13;;;22.60;99.90;;;;;;5052185;28;20218;-64
2023/08/18 00:32:19;;;;;;;15.70;15.13;;;22.60;99.90;;;;;;5054572;28;20576;-65
2023/08/18 00:34:45;;;;;;;14.02;13.52;;;22.60;99.90;;;;;;5054266;28;20313;-65
2023/08/18 00:37:13;;;;;;;14.45;13.95;;;22.60;99.90;;;;;;5055602;28;20204;-66
2023/08/18 00:39:40;;;;;;;16.42;15.82;;;22.50;99.90;;;;;;5054345;28;20212;-66
2023/08/18 00:42:07;;;;;;;18.77;18.08;;;22.50;99.90;;;;;;5056627;28;20208;-66
2023/08/18 00:44:35;;;;;;;21.85;21.05;;;22.40;99.90;;;;;;5053179;28;20230;-65
2023/08/18 00:47:03;;;;;;;25.55;24.52;;;22.30;99.90;;;;;;5053177;28;20708;-67
2023/08/18 00:49:30;;;;;;;23.63;22.75;;;22.20;99.90;;;;;;5051884;28;20265;-65
2023/08/18 00:51:57;;;;;;;22.65;21.83;;;22.10;99.90;;;;;;5052509;28;20212;-67
2023/08/18 00:54:24;;;;;;;27.60;26.63;;;22.00;99.90;;;;;;5051932;28;20681;-66
2023/08/18 00:56:51;;;;;;;24.75;23.88;;;21.90;99.90;;;;;;5052534;28;20295;-65
2023/08/18 00:59:19;;;;;;;34.50;33.25;;;22.00;99.90;;;;;;5051812;28;20579;-65
2023/08/18 01:01:49;;;;;;;26.30;25.37;;;22.00;99.90;;;;;;5052073;28;20584;-65
2023/08/18 01:04:15;;;;;;;32.05;30.85;;;21.90;99.90;;;;;;5052099;28;20579;-67
2023/08/18 01:06:42;;;;;;;31.52;30.33;;;21.80;99.90;;;;;;5051966;28;20204;-65
2023/08/18 01:09:09;;;;;;;33.55;32.35;;;21.70;99.90;;;;;;5050913;28;20200;-66
2023/08/18 01:11:44;;;;;;;31.90;30.77;;;21.70;99.90;;;;;;5050578;28;20674;-66
2023/08/18 01:14:17;;;;;;;38.58;37.10;;;21.70;99.90;;;;;;5051675;28;20376;-67
2023/08/18 01:16:54;;;;;;;33.35;32.15;;;21.70;99.90;;;;;;5054548;28;20207;-65
2023/08/18 01:19:22;;;;;;;38.85;37.45;;;21.60;99.90;;;;;;5051700;28;20255;-66
2023/08/18 01:21:53;;;;;;;31.67;30.55;;;21.60;99.90;;;;;;5051598;28;20215;-64
2023/08/18 01:24:24;;;;;;;31.10;30.00;;;21.60;99.90;;;;;;5051826;28;20252;-65
2023/08/18 01:26:51;;;;;;;35.13;33.88;;;21.60;99.90;;;;;;5051659;28;20724;-66
2023/08/18 01:29:18;;;;;;;35.53;34.27;;;21.50;99.90;;;;;;5050752;28;20528;-68
2023/08/18 01:31:49;;;;;;;32.25;31.10;;;21.50;99.90;;;;;;5047007;28;20204;-65
2023/08/18 01:34:17;;;;;;;28.90;27.88;;;21.40;99.90;;;;;;5051231;28;20728;-65
2023/08/18 01:36:45;;;;;;;33.45;32.25;;;21.40;99.90;;;;;;5051768;28;20200;-66
2023/08/18 01:39:14;;;;;;;31.52;30.42;;;21.40;99.90;;;;;;5051095;28;20212;-65
2023/08/18 01:41:43;;;;;;;27.83;26.83;;;21.30;99.90;;;;;;5051688;28;20375;-66
2023/08/18 01:44:14;;;;;;;28.02;26.98;;;21.20;99.90;;;;;;5051552;28;20224;-63
2023/08/18 01:46:41;;;;;;;29.03;27.93;;;21.10;99.90;;;;;;5051333;28;20667;-69
2023/08/18 01:49:08;;;;;;;28.65;27.63;;;21.10;99.90;;;;;;5049360;28;20212;-66
2023/08/18 01:51:37;;;;;;;28.27;27.25;;;21.00;99.90;;;;;;5051440;28;20200;-66
2023/08/18 01:54:04;;;;;;;31.92;30.77;;;20.90;99.90;;;;;;5050778;28;20750;-67
2023/08/18 01:56:32;;;;;;;28.00;26.92;;;20.90;99.90;;;;;;5051340;28;20207;-66
2023/08/18 01:59:01;;;;;;;26.75;25.83;;;20.90;99.90;;;;;;5051027;28;20288;-67
2023/08/18 02:01:28;;;;;;;25.23;24.33;;;20.90;99.90;;;;;;5050555;28;20208;-66
2023/08/18 02:03:55;;;;;;;25.85;24.95;;;20.80;99.90;;;;;;5050886;28;20227;-67
2023/08/18 02:06:22;;;;;;;28.08;27.00;;;20.80;99.90;;;;;;5050588;28;20302;-67
2023/08/18 02:08:49;;;;;;;30.70;29.57;;;20.80;99.90;;;;;;5050890;28;20277;-66
2023/08/18 02:11:15;;;;;;;27.43;26.27;;;20.80;99.90;;;;;;5051473;28;20200;-69
2023/08/18 02:13:42;;;;;;;26.63;25.53;;;20.70;99.90;;;;;;5054235;28;20318;-66
2023/08/18 02:16:10;;;;;;;24.57;23.67;;;20.70;99.90;;;;;;5050489;28;20211;-66
2023/08/18 02:18:38;;;;;;;28.73;27.73;;;20.70;99.90;;;;;;5050968;28;20207;-66
2023/08/18 02:21:05;;;;;;;28.07;26.97;;;20.60;99.90;;;;;;5049016;28;20211;-66
2023/08/18 02:23:33;;;;;;;28.85;27.73;;;20.60;99.90;;;;;;5051261;28;20238;-66
2023/08/18 02:26:00;;;;;;;27.30;26.30;;;20.50;99.90;;;;;;5053971;28;20673;-66
2023/08/18 02:28:27;;;;;;;30.13;29.07;;;20.50;99.90;;;;;;5051399;28;20669;-66
2023/08/18 02:30:59;;;;;;;27.63;26.63;;;20.50;99.90;;;;;;5050651;28;20215;-66
2023/08/18 02:33:28;;;;;;;30.40;29.30;;;20.50;99.90;;;;;;5067620;22;20237;-66
2023/08/18 02:35:55;;;;;;;26.23;25.30;;;20.40;99.90;;;;;;5069953;28;20235;-64
2023/08/18 02:38:21;;;;;;;29.67;28.57;;;20.40;99.90;;;;;;5070038;28;20226;-65
2023/08/18 02:40:48;;;;;;;32.42;31.27;;;20.40;99.90;;;;;;5069252;28;20215;-64
2023/08/18 02:43:15;;;;;;;29.85;28.80;;;20.30;99.90;;;;;;5069901;28;20779;-65
2023/08/18 02:45:42;;;;;;;33.20;32.03;;;20.30;99.90;;;;;;5070738;28;20526;-67
2023/08/18 02:48:10;;;;;;;33.17;32.00;;;20.30;99.90;;;;;;5072658;28;20321;-64
2023/08/18 02:50:39;;;;;;;30.30;29.13;;;20.30;99.90;;;;;;5071704;28;20199;-64
2023/08/18 02:53:06;;;;;;;29.90;28.85;;;20.30;99.90;;;;;;5068603;28;20207;-66
2023/08/18 02:55:34;;;;;;;30.05;28.98;;;20.30;99.90;;;;;;5071147;28;20309;-65
2023/08/18 02:58:01;;;;;;;26.00;25.07;;;20.30;99.90;;;;;;5070930;28;20302;-62
2023/08/18 03:00:28;;;;;;;27.53;26.53;;;20.40;99.90;;;;;;5070220;28;20199;-64
2023/08/18 03:02:55;;;;;;;29.25;28.23;;;20.40;99.90;;;;;;5070641;28;20211;-64
2023/08/18 03:05:21;;;;;;;31.20;30.00;;;20.30;99.90;;;;;;5071505;28;20225;-64
2023/08/18 03:07:49;;;;;;;29.10;28.05;;;20.30;99.90;;;;;;5070934;28;20221;-64
2023/08/18 03:10:16;;;;;;;35.47;34.10;;;20.20;99.90;;;;;;5071180;28;20206;-64
2023/08/18 03:12:43;;;;;;;35.25;34.00;;;20.20;99.90;;;;;;5071658;28;20223;-65
2023/08/18 03:15:11;;;;;;;33.40;32.20;;;20.20;99.90;;;;;;5069806;28;20230;-65
2023/08/18 03:17:37;;;;;;;34.43;33.23;;;20.20;99.90;;;;;;5069707;28;20209;-66
2023/08/18 03:20:07;;;;;;;36.28;34.97;;;20.20;99.90;;;;;;5069165;28;20218;-65
2023/08/18 03:22:34;;;;;;;34.92;33.72;;;20.30;99.90;;;;;;5070707;28;20199;-66
2023/08/18 03:25:03;;;;;;;36.70;35.40;;;20.30;99.90;;;;;;5069504;28;20230;-65
2023/08/18 03:27:30;;;;;;;34.40;33.10;;;20.30;99.90;;;;;;5069276;28;20214;-64
2023/08/18 03:29:57;;;;;;;34.43;33.23;;;20.30;99.90;;;;;;5069059;28;20309;-64
2023/08/18 03:32:24;;;;;;;36.13;34.83;;;20.30;99.90;;;;;;5069790;28;20211;-64
2023/08/18 03:34:53;;;;;;;37.87;36.57;;;20.30;99.90;;;;;;5069043;28;20233;-65
2023/08/18 03:37:19;;;;;;;39.05;37.65;;;20.30;99.90;;;;;;5070926;28;20217;-62
2023/08/18 03:39:46;;;;;;;33.08;31.92;;;20.30;99.90;;;;;;5073959;28;20206;-64
2023/08/18 03:42:15;;;;;;;34.50;33.22;;;20.20;99.90;;;;;;5074161;28;20665;-67
2023/08/18 03:44:41;;;;;;;35.53;34.27;;;20.20;99.90;;;;;;5074311;28;20222;-66
2023/08/18 03:47:08;;;;;;;31.37;30.27;;;20.10;99.90;;;;;;5074525;28;20580;-64
2023/08/18 03:49:35;;;;;;;34.97;33.75;;;20.00;99.90;;;;;;5073505;28;20739;-65
2023/08/18 03:52:02;;;;;;;35.55;34.25;;;20.00;99.90;;;;;;5075004;28;20289;-65
2023/08/18 03:54:29;;;;;;;38.47;37.10;;;19.90;99.90;;;;;;5085609;28;20235;-66
2023/08/18 03:56:54;;;;;;;34.97;33.77;;;19.80;99.90;;;;;;5085921;28;20240;-65
2023/08/18 03:59:22;;;;;;;34.47;33.23;;;19.80;99.90;;;;;;5084366;28;20645;-64
2023/08/18 04:01:49;;;;;;;31.27;30.17;;;19.90;99.90;;;;;;5082945;28;20294;-65
2023/08/18 04:04:16;;;;;;;36.03;34.72;;;19.90;99.90;;;;;;5073982;28;20638;-66
2023/08/18 04:06:43;;;;;;;38.90;37.47;;;19.90;99.90;;;;;;5074624;28;20207;-63
2023/08/18 04:09:15;;;;;;;32.90;31.70;;;19.90;99.90;;;;;;5074421;28;20306;-66
2023/08/18 04:11:42;;;;;;;37.03;35.72;;;19.80;99.90;;;;;;5074128;28;20282;-67
2023/08/18 04:14:09;;;;;;;36.27;34.97;;;19.90;99.90;;;;;;5073903;28;20230;-66
2023/08/18 04:16:38;;;;;;;41.15;39.65;;;19.80;99.90;;;;;;5073732;28;20623;-66
2023/08/18 04:19:05;;;;;;;29.88;28.83;;;19.80;99.90;;;;;;5073474;28;20243;-63
2023/08/18 04:21:32;;;;;;;31.70;30.60;;;20.00;99.90;;;;;;5075246;28;20310;-66
2023/08/18 04:23:59;;;;;;;38.22;36.88;;;19.80;99.90;;;;;;5074550;28;20231;-63
2023/08/18 04:26:27;;;;;;;34.27;33.00;;;19.80;99.90;;;;;;5074344;28;20199;-66
2023/08/18 04:28:54;;;;;;;28.98;27.88;;;19.80;99.90;;;;;;5074480;28;20207;-65
2023/08/18 04:31:21;;;;;;;28.52;27.50;;;19.70;99.90;;;;;;5073660;28;20684;-64
2023/08/18 04:33:49;;;;;;;28.45;27.42;;;19.50;99.90;;;;;;5074666;28;20386;-64
2023/08/18 04:36:16;;;;;;;28.20;27.17;;;19.50;99.90;;;;;;5075966;28;20231;-66
2023/08/18 04:38:43;;;;;;;33.53;32.33;;;19.50;99.90;;;;;;5073915;28;20207;-64
2023/08/18 04:41:10;;;;;;;28.63;27.60;;;19.50;99.90;;;;;;5072594;28;20214;-64
2023/08/18 04:43:37;;;;;;;37.20;35.70;;;19.50;99.90;;;;;;5071866;28;20301;-64
2023/08/18 04:46:04;;;;;;;24.50;23.65;;;19.50;99.90;;;;;;5072913;28;20204;-67
2023/08/18 04:48:30;;;;;;;33.28;31.83;;;19.50;99.90;;;;;;5072707;28;20330;-65
2023/08/18 04:50:59;;;;;;;29.67;28.63;;;19.40;99.90;;;;;;5072089;28;20213;-64
2023/08/18 04:53:25;;;;;;;27.73;26.67;;;19.40;99.90;;;;;;5072778;28;20314;-64
2023/08/18 04:55:52;;;;;;;29.80;28.73;;;19.40;99.90;;;;;;5071846;28;20233;-64
2023/08/18 04:58:19;;;;;;;31.00;29.90;;;19.30;99.90;;;;;;5072731;28;20218;-65
2023/08/18 05:00:46;;;;;;;34.35;33.15;;;19.30;99.90;;;;;;5072590;28;20211;-63
2023/08/18 05:03:13;;;;;;;36.67;35.37;;;19.40;99.90;;;;;;5086023;28;20227;-64
2023/08/18 05:05:41;;;;;;;39.00;37.60;;;19.40;99.90;;;;;;5086558;28;20211;-65
2023/08/18 05:08:09;;;;;;;34.83;33.60;;;19.50;99.90;;;;;;5080529;28;20742;-63
2023/08/18 05:10:36;;;;;;;35.33;34.07;;;19.40;99.90;;;;;;5074461;28;20214;-66
2023/08/18 05:13:03;;;;;;;39.60;38.10;;;19.40;99.90;;;;;;5071459;28;20649;-65
2023/08/18 05:15:30;;;;;;;37.90;36.57;;;19.50;99.90;;;;;;5073432;28;20243;-65
2023/08/18 05:17:56;;;;;;;33.17;31.98;;;19.50;99.90;;;;;;5078888;28;20297;-65
2023/08/18 05:20:23;;;;;;;36.60;35.30;;;19.50;99.90;;;;;;5078306;28;20203;-65
2023/08/18 05:22:51;;;;;;;37.80;36.47;;;19.60;99.90;;;;;;5079990;28;20214;-63
2023/08/18 05:25:19;;;;;;;39.17;37.73;;;19.70;99.90;;;;;;5072791;28;20289;-66
2023/08/18 05:27:46;;;;;;;37.60;36.28;;;19.90;99.90;;;;;;5072530;28;20211;-64
2023/08/18 05:30:13;;;;;;;30.43;29.27;;;19.80;99.90;;;;;;5072472;28;20266;-65
2023/08/18 05:32:40;;;;;;;34.33;33.13;;;19.90;99.90;;;;;;5072743;28;20543;-64
2023/08/18 05:35:10;;;;;;;35.92;34.63;;;19.90;99.90;;;;;;5073053;28;20231;-65
2023/08/18 05:37:36;;;;;;;37.35;36.05;;;20.00;99.90;;;;;;5073320;28;20207;-64
2023/08/18 05:40:04;;;;;;;37.70;36.22;;;20.20;99.90;;;;;;5072437;28;20230;-65
2023/08/18 05:42:32;;;;;;;41.53;40.05;;;20.30;99.90;;;;;;5072899;28;20207;-65
2023/08/18 05:44:59;;;;;;;34.85;33.63;;;20.40;99.90;;;;;;5073045;28;20663;-64
2023/08/18 05:47:26;;;;;;;33.97;32.72;;;20.40;99.90;;;;;;5072696;28;20271;-65
2023/08/18 05:49:52;;;;;;;32.35;31.25;;;20.50;99.90;;;;;;5072268;28;20199;-65
2023/08/18 05:52:19;;;;;;;37.20;35.90;;;20.60;99.90;;;;;;5072299;28;20242;-66
2023/08/18 05:54:46;;;;;;;37.03;35.73;;;20.70;99.90;;;;;;5071878;28;20735;-64
2023/08/18 05:57:13;;;;;;;31.90;30.73;;;20.60;99.90;;;;;;5071414;28;20227;-65
2023/08/18 05:59:41;;;;;;;31.87;30.70;;;20.70;99.90;;;;;;5070960;28;20214;-65
2023/08/18 06:02:08;;;;;;;32.88;31.73;;;20.70;99.90;;;;;;5071978;28;20598;-65
2023/08/18 06:04:35;;;;;;;32.57;31.37;;;20.80;99.90;;;;;;5071532;28;20225;-65
2023/08/18 06:07:02;;;;;;;37.67;36.33;;;20.90;99.90;;;;;;5071356;28;20201;-64
2023/08/18 06:09:29;;;;;;;26.65;25.70;;;21.00;99.90;;;;;;5070571;28;20207;-66
2023/08/18 06:11:56;;;;;;;35.70;34.40;;;21.10;99.90;;;;;;5071749;28;20199;-66
2023/08/18 06:14:22;;;;;;;27.63;26.63;;;21.20;99.90;;;;;;5071402;28;20314;-64
2023/08/18 06:16:51;;;;;;;26.00;25.00;;;21.30;99.90;;;;;;5071137;28;20234;-65
2023/08/18 06:19:17;;;;;;;30.05;28.98;;;21.40;99.90;;;;;;5070592;28;20666;-66
2023/08/18 06:21:44;;;;;;;29.60;28.50;;;21.50;99.90;;;;;;5070953;28;20562;-65
2023/08/18 06:24:11;;;;;;;28.48;27.48;;;21.60;99.90;;;;;;5070341;28;20234;-67
2023/08/18 06:26:38;;;;;;;26.50;25.57;;;21.60;99.90;;;;;;5072176;28;20207;-63
2023/08/18 06:29:05;;;;;;;20.60;19.88;;;21.80;99.90;;;;;;5070634;28;20382;-61
2023/08/18 06:31:31;;;;;;;20.88;20.15;;;21.90;99.90;;;;;;5071689;28;20203;-65
2023/08/18 06:34:00;;;;;;;21.65;20.90;;;22.00;99.90;;;;;;5071425;28;20616;-63
2023/08/18 06:36:26;;;;;;;20.83;20.13;;;22.00;99.90;;;;;;5069870;28;20318;-64
2023/08/18 06:38:53;;;;;;;23.13;22.27;;;22.10;99.90;;;;;;5071134;28;20219;-65
2023/08/18 06:41:20;;;;;;;18.63;17.92;;;22.20;99.90;;;;;;5069978;28;20211;-66
2023/08/18 06:43:47;;;;;;;13.38;12.90;;;22.30;99.90;;;;;;5070891;28;20271;-65
2023/08/18 06:46:16;;;;;;;14.90;14.40;;;22.40;99.90;;;;;;5071051;28;20626;-64
2023/08/18 06:48:43;;;;;;;17.48;16.83;;;22.50;99.90;;;;;;5070949;28;20207;-64
2023/08/18 06:51:11;;;;;;;13.07;12.55;;;22.70;99.90;;;;;;5070489;28;20213;-64
2023/08/18 06:53:37;;;;;;;13.23;12.73;;;22.70;99.90;;;;;;5070503;28;20227;-64
2023/08/18 06:56:04;;;;;;;11.50;11.10;;;22.80;99.90;;;;;;5070561;28;20917;-65
2023/08/18 06:58:32;;;;;;;13.52;13.05;;;22.90;99.90;;;;;;5072155;28;20210;-63
2023/08/18 07:00:59;;;;;;;11.57;11.18;;;23.00;99.90;;;;;;5071409;28;20211;-64
2023/08/18 07:03:26;;;;;;;10.65;10.25;;;23.10;99.90;;;;;;5070290;28;20227;-67
2023/08/18 07:05:53;;;;;;;10.95;10.55;;;23.30;99.90;;;;;;5069233;28;20205;-65
2023/08/18 07:08:23;;;;;;;9.70;9.40;;;23.50;99.90;;;;;;5070444;28;20313;-66
2023/08/18 07:10:49;;;;;;;9.43;9.13;;;23.70;99.90;;;;;;5069129;28;20326;-66
2023/08/18 07:13:16;;;;;;;10.00;9.70;;;23.80;99.90;;;;;;5069959;28;20233;-65
2023/08/18 07:15:43;;;;;;;9.30;9.00;;;24.00;99.90;;;;;;5070753;28;20241;-64
2023/08/18 07:18:10;;;;;;;9.70;9.40;;;24.20;99.90;;;;;;5071132;28;20199;-64
2023/08/18 07:20:37;;;;;;;9.63;9.23;;;24.30;99.90;;;;;;5070776;28;20199;-64
2023/08/18 07:23:04;;;;;;;10.00;9.70;;;24.50;99.90;;;;;;5072408;28;20275;-64
2023/08/18 07:25:32;;;;;;;10.10;9.70;;;24.60;99.90;;;;;;5072192;28;20213;-65
2023/08/18 07:27:59;;;;;;;9.60;9.30;;;24.70;99.90;;;;;;5070388;28;20214;-66
2023/08/18 07:30:26;;;;;;;9.25;8.95;;;24.80;99.90;;;;;;5068997;28;20203;-66
2023/08/18 07:32:54;;;;;;;9.60;9.30;;;24.90;99.90;;;;;;5069132;28;20569;-66
2023/08/18 07:35:21;;;;;;;9.40;9.07;;;25.00;99.90;;;;;;5069499;28;20215;-65
2023/08/18 07:37:47;;;;;;;8.93;8.63;;;25.10;99.90;;;;;;5068064;28;20583;-64
2023/08/18 07:40:14;;;;;;;9.00;8.70;;;25.10;99.90;;;;;;5071218;28;20213;-64
2023/08/18 07:42:44;;;;;;;9.43;9.13;;;25.20;99.90;;;;;;5071072;28;20230;-65
2023/08/18 07:45:11;;;;;;;9.43;9.07;;;25.40;99.90;;;;;;5070897;28;20257;-64
2023/08/18 07:47:38;;;;;;;9.50;9.20;;;25.40;99.90;;;;;;5070963;28;20332;-64
2023/08/18 07:50:06;;;;;;;10.50;10.10;;;25.50;99.90;;;;;;5070517;28;20203;-64
2023/08/18 07:52:33;;;;;;;10.20;9.80;;;25.50;99.90;;;;;;5071032;28;20271;-64
2023/08/18 07:54:59;;;;;;;10.43;10.02;;;25.60;99.90;;;;;;5072334;28;20239;-66
2023/08/18 07:57:26;;;;;;;10.13;9.80;;;25.70;99.90;;;;;;5073754;28;20223;-63
2023/08/18 07:59:55;;;;;;;10.05;9.65;;;25.80;99.90;;;;;;5071128;28;20203;-64
2023/08/18 08:02:22;;;;;;;10.50;10.10;;;25.80;99.90;;;;;;5070974;28;20306;-64
2023/08/18 08:04:51;;;;;;;11.07;10.68;;;25.90;99.90;;;;;;5069425;28;20786;-65
2023/08/18 08:07:17;;;;;;;10.88;10.48;;;25.90;99.90;;;;;;5069968;28;20204;-65
2023/08/18 08:09:44;;;;;;;10.80;10.40;;;26.00;99.90;;;;;;5070382;28;20198;-65
2023/08/18 08:12:11;;;;;;;10.63;10.23;;;26.10;99.90;;;;;;5069920;28;20253;-65
2023/08/18 08:14:38;;;;;;;11.05;10.65;;;26.00;99.90;;;;;;5069652;28;20564;-65
2023/08/18 08:17:06;;;;;;;11.70;11.30;;;26.00;99.90;;;;;;5069762;28;20226;-64
2023/08/18 08:19:33;;;;;;;13.00;12.50;;;26.10;99.90;;;;;;5068915;28;20225;-63
2023/08/18 08:22:02;;;;;;;11.43;11.02;;;26.20;99.90;;;;;;5069546;28;20444;-64
2023/08/18 08:24:30;;;;;;;12.00;11.57;;;26.30;99.90;;;;;;5074954;28;20223;-65
2023/08/18 08:26:57;;;;;;;12.40;11.90;;;26.20;99.90;;;;;;5073564;28;20206;-65
2023/08/18 08:29:24;;;;;;;11.90;11.50;;;26.30;99.90;;;;;;5072560;28;20691;-65
2023/08/18 08:31:51;;;;;;;12.55;12.05;;;26.20;99.90;;;;;;5072406;28;20204;-64
2023/08/18 08:34:19;;;;;;;12.18;11.68;;;26.20;99.90;;;;;;5088160;22;20233;-66
2023/08/18 08:36:46;;;;;;;12.10;11.70;;;26.40;99.90;;;;;;5070341;28;20223;-68
2023/08/18 08:39:13;;;;;;;11.60;11.20;;;26.60;99.90;;;;;;5073453;28;20203;-67
2023/08/18 08:41:40;;;;;;;11.75;11.35;;;26.70;99.90;;;;;;5076219;28;20683;-68
2023/08/18 08:44:07;;;;;;;12.07;11.68;;;26.80;99.90;;;;;;5074403;28;20230;-65
2023/08/18 08:46:35;;;;;;;11.90;11.50;;;26.90;99.90;;;;;;5077088;28;20235;-66
2023/08/18 08:49:05;;;;;;;11.45;10.98;;;27.00;99.90;;;;;;5072437;28;20199;-65
2023/08/18 08:51:38;;;;;;;11.15;10.73;;;27.00;99.90;;;;;;5073036;28;20238;-66
2023/08/18 08:54:08;;;;;;;11.63;11.23;;;27.00;99.90;;;;;;5073351;28;20230;-67
2023/08/18 08:56:36;;;;;;;11.70;11.30;;;27.10;99.90;;;;;;5075096;28;20225;-65
2023/08/18 08:59:03;;;;;;;12.27;11.88;;;27.30;99.90;;;;;;5075689;28;20295;-66
2023/08/18 09:01:30;;;;;;;12.32;11.93;;;27.30;99.90;;;;;;5076558;28;20301;-67
2023/08/18 09:03:57;;;;;;;12.10;11.65;;;27.30;99.90;;;;;;5075795;28;20238;-67
2023/08/18 09:06:24;;;;;;;11.90;11.50;;;27.50;99.90;;;;;;5073721;28;20213;-68
2023/08/18 09:08:53;;;;;;;11.45;11.05;;;27.60;99.90;;;;;;5072296;28;20673;-67
2023/08/18 09:11:19;;;;;;;12.07;11.68;;;27.60;99.90;;;;;;5073156;28;20203;-68
2023/08/18 09:13:46;;;;;;;12.65;12.15;;;27.90;99.90;;;;;;5075690;28;20203;-67
2023/08/18 09:16:13;;;;;;;12.80;12.35;;;28.00;99.90;;;;;;5072638;28;20203;-67
2023/08/18 09:18:40;;;;;;;12.93;12.32;;;28.10;99.90;;;;;;5072138;28;20235;-67
2023/08/18 09:21:08;;;;;;;12.73;12.23;;;28.20;99.90;;;;;;5071248;28;20226;-67
2023/08/18 09:23:35;;;;;;;11.75;11.35;;;28.30;99.90;;;;;;5074560;28;20242;-66
2023/08/18 09:26:04;;;;;;;12.40;11.98;;;28.30;99.90;;;;;;5074929;28;20203;-66
2023/08/18 09:28:32;;;;;;;12.75;12.25;;;28.30;99.90;;;;;;5072250;28;20241;-66
2023/08/18 09:30:58;;;;;;;12.60;12.10;;;28.40;99.90;;;;;;5071414;28;20261;-67
2023/08/18 09:33:27;;;;;;;12.50;12.02;;;28.50;99.90;;;;;;5072639;28;20565;-67
2023/08/18 09:35:58;;;;;;;13.73;13.23;;;28.60;99.90;;;;;;5070442;28;20228;-67
2023/08/18 09:38:27;;;;;;;13.48;12.98;;;28.60;99.90;;;;;;5071658;28;20227;-67
2023/08/18 09:40:56;;;;;;;12.73;12.23;;;28.80;99.90;;;;;;5070776;28;20243;-67
2023/08/18 09:43:25;;;;;;;12.00;11.60;;;28.80;99.90;;;;;;5071560;28;20214;-67
2023/08/18 09:45:53;;;;;;;11.88;11.48;;;28.90;99.90;;;;;;5070658;28;20313;-67
2023/08/18 09:48:22;;;;;;;11.45;11.05;;;29.00;99.90;;;;;;5072224;28;20584;-66
2023/08/18 09:50:52;;;;;;;11.10;10.70;;;29.00;99.90;;;;;;5071853;28;20211;-67
2023/08/18 09:53:23;;;;;;;11.93;11.43;;;29.00;99.90;;;;;;5072434;28;20211;-66
2023/08/18 09:55:52;;;;;;;11.55;11.15;;;28.80;99.90;;;;;;5073895;28;20314;-67
2023/08/18 09:58:33;;;;;;;11.10;10.70;;;29.00;99.90;;;;;;5073433;28;20803;-67
2023/08/18 10:00:59;;;;;;;11.13;10.73;;;29.20;99.90;;;;;;5071980;28;20556;-68
2023/08/18 10:03:27;;;;;;;14.60;14.00;;;29.30;99.90;;;;;;5080475;28;20302;-67
2023/08/18 10:05:55;;;;;;;11.00;10.60;;;29.20;99.90;;;;;;5077323;28;20229;-66
2023/08/18 10:08:23;;;;;;;10.90;10.50;;;29.30;99.90;;;;;;5082105;28;20263;-66
2023/08/18 10:10:50;;;;;;;11.18;10.77;;;29.30;99.90;;;;;;5076396;28;20295;-68
2023/08/18 10:13:18;;;;;;;10.57;10.18;;;29.50;99.90;;;;;;5072073;28;20440;-68
2023/08/18 10:15:47;;;;;;;11.10;10.70;;;29.60;99.90;;;;;;5072291;28;20685;-67
2023/08/18 10:18:14;;;;;;;10.90;10.50;;;29.70;99.90;;;;;;5071767;28;20226;-67
2023/08/18 10:20:51;;;;;;;11.07;10.68;;;29.90;99.90;;;;;;5071463;28;20202;-67
2023/08/18 10:23:18;;;;;;;10.50;10.10;;;29.90;99.90;;;;;;5071950;28;20698;-66
2023/08/18 10:25:45;;;;;;;10.20;9.80;;;30.00;99.90;;;;;;5071877;28;20227;-67
2023/08/18 10:28:19;;;;;;;10.30;9.90;;;30.10;99.90;;;;;;5071941;28;20210;-67
2023/08/18 10:30:51;;;;;;;10.45;10.05;;;30.20;99.90;;;;;;5071323;28;20577;-67
2023/08/18 10:33:31;;;;;;;10.30;9.90;;;30.40;99.90;;;;;;5073709;28;20207;-67
2023/08/18 10:35:58;;;;;;;10.30;9.90;;;30.50;99.90;;;;;;5072402;28;20225;-66
2023/08/18 10:38:28;;;;;;;10.07;9.68;;;30.50;99.90;;;;;;5072540;28;20261;-66
2023/08/18 10:40:56;;;;;;;10.48;9.98;;;30.50;99.90;;;;;;5073090;28;20203;-67
2023/08/18 10:43:26;;;;;;;9.80;9.40;;;30.60;99.90;;;;;;5071373;28;20211;-67
2023/08/18 10:46:01;;;;;;;10.50;10.10;;;30.60;99.90;;;;;;5071404;28;20272;-67
2023/08/18 10:48:32;;;;;;;9.68;9.38;;;30.60;99.90;;;;;;5072106;28;20212;-67
2023/08/18 10:50:59;;;;;;;10.10;9.70;;;30.80;99.90;;;;;;5071797;28;20207;-67
2023/08/18 10:53:27;;;;;;;10.60;10.18;;;30.80;99.90;;;;;;5071669;28;20234;-67
2023/08/18 10:55:54;;;;;;;9.90;9.50;;;30.90;99.90;;;;;;5078587;28;20227;-67
2023/08/18 10:58:21;;;;;;;10.52;10.13;;;31.00;99.90;;;;;;5072693;28;20336;-66
2023/08/18 11:00:49;;;;;;;11.13;10.68;;;31.10;99.90;;;;;;5072295;28;20209;-66
2023/08/18 11:03:17;;;;;;;10.07;9.68;;;31.10;99.90;;;;;;5072675;28;20225;-66
2023/08/18 11:05:44;;;;;;;9.95;9.63;;;30.80;99.90;;;;;;5072150;28;20318;-67
2023/08/18 11:08:11;;;;;;;10.15;9.75;;;30.60;99.90;;;;;;5073690;28;20209;-66
2023/08/18 11:10:39;;;;;;;9.95;9.63;;;30.80;99.90;;;;;;5071870;28;20253;-67
2023/08/18 11:13:06;;;;;;;10.25;9.85;;;31.00;99.90;;;;;;5072520;28;20207;-66
2023/08/18 11:15:33;;;;;;;10.25;9.80;;;30.90;99.90;;;;;;5072815;28;20229;-68
2023/08/18 11:18:00;;;;;;;10.57;10.18;;;31.00;99.90;;;;;;5071185;28;20649;-67
2023/08/18 11:20:28;;;;;;;9.88;9.48;;;31.30;99.90;;;;;;5070239;28;20204;-67
2023/08/18 11:22:57;;;;;;;10.02;9.65;;;31.30;99.90;;;;;;5071015;28;20202;-68
2023/08/18 11:25:25;;;;;;;10.45;10.05;;;31.40;99.90;;;;;;5070732;28;20675;-68
2023/08/18 11:27:52;;;;;;;10.68;10.27;;;31.50;99.90;;;;;;5068517;28;20205;-68
2023/08/18 11:30:20;;;;;;;11.13;10.52;;;31.60;99.90;;;;;;5069170;28;20312;-66
2023/08/18 11:32:47;;;;;;;10.60;10.20;;;31.70;99.90;;;;;;5069874;28;20217;-68
2023/08/18 11:35:14;;;;;;;10.95;10.55;;;31.80;99.90;;;;;;5069283;28;20227;-68
2023/08/18 11:37:44;;;;;;;10.98;10.57;;;31.80;99.90;;;;;;5069437;28;20237;-66
2023/08/18 11:40:13;;;;;;;11.57;11.18;;;31.80;99.90;;;;;;5070451;28;20207;-66
2023/08/18 11:42:42;;;;;;;11.40;11.00;;;31.90;99.90;;;;;;5071779;28;20210;-68
2023/08/18 11:45:10;;;;;;;13.02;12.52;;;32.10;99.90;;;;;;5069429;28;20723;-67
2023/08/18 11:47:38;;;;;;;11.40;11.00;;;32.00;99.90;;;;;;5069187;28;20732;-68
2023/08/18 11:50:06;;;;;;;11.77;11.38;;;31.80;99.90;;;;;;5068699;28;20215;-66
2023/08/18 11:52:45;;;;;;;11.70;11.25;;;31.80;99.90;;;;;;5070091;28;20627;-67
2023/08/18 11:55:13;;;;;;;12.65;12.13;;;31.80;99.90;;;;;;5069659;28;20233;-67
2023/08/18 11:57:44;;;;;;;11.02;10.63;;;31.70;99.90;;;;;;5068689;28;20313;-69
2023/08/18 12:00:13;;;;;;;11.55;11.05;;;31.70;99.90;;;;;;5073677;28;20677;-66
2023/08/18 12:02:44;;;;;;;11.75;11.35;;;31.90;99.90;;;;;;5074443;28;20332;-68
2023/08/18 12:05:22;;;;;;;10.75;10.35;;;32.00;99.90;;;;;;5073573;28;20703;-66
2023/08/18 12:07:52;;;;;;;11.65;11.25;;;32.10;99.90;;;;;;5073353;28;20195;-66
2023/08/18 12:10:18;;;;;;;11.77;11.23;;;32.20;99.90;;;;;;5072710;28;20207;-66
2023/08/18 12:12:51;;;;;;;13.07;12.45;;;32.40;99.90;;;;;;5073324;28;20207;-67
2023/08/18 12:15:18;;;;;;;11.98;11.48;;;32.50;99.90;;;;;;5073472;28;20231;-66
2023/08/18 12:17:45;;;;;;;11.95;11.52;;;32.60;99.90;;;;;;5073019;28;20219;-67
2023/08/18 12:20:12;;;;;;;15.02;14.43;;;32.30;99.90;;;;;;5072622;28;20218;-67
2023/08/18 12:22:39;;;;;;;11.98;11.57;;;32.20;99.90;;;;;;5072729;28;20211;-67
2023/08/18 12:25:09;;;;;;;11.23;10.73;;;32.20;99.90;;;;;;5073488;28;20713;-67
2023/08/18 12:27:36;;;;;;;11.40;11.00;;;32.40;99.90;;;;;;5075162;28;20203;-67
2023/08/18 12:30:03;;;;;;;12.45;11.95;;;32.50;99.90;;;;;;5074437;28;20211;-66